Time;durP1;ratioP1;P1;durP2;ratioP2;P2;SDS_P1;SDS_P2;PMS_P1;PMS_P2;Temp;Humidity;BMP_temperature;BMP_pressure;BME280_temperature;BME280_humidity;BME280_pressure;Samples;Min_cycle;Max_cycle;Signal;HPM_P1;HPM_P2
2022/07/25 00:01:41;;;;;;;6.35;4.38;;;26.90;73.40;;;;;;5035364;28;20484;-67
2022/07/25 00:04:07;;;;;;;7.25;5.20;;;26.90;73.60;;;;;;5049632;28;20033;-69
2022/07/25 00:06:34;;;;;;;6.47;4.40;;;26.90;73.80;;;;;;5055220;28;20091;-67
2022/07/25 00:09:00;;;;;;;7.25;4.47;;;26.90;74.00;;;;;;5054123;28;20052;-69
2022/07/25 00:11:26;;;;;;;7.53;5.28;;;26.90;74.10;;;;;;5053733;28;20025;-68
2022/07/25 00:13:51;;;;;;;5.70;4.95;;;26.90;74.10;;;;;;5054736;28;20104;-67
2022/07/25 00:16:17;;;;;;;5.65;4.50;;;26.80;74.20;;;;;;5055286;28;20025;-66
2022/07/25 00:18:43;;;;;;;5.43;4.57;;;26.80;74.30;;;;;;5054870;28;20497;-67
2022/07/25 00:21:08;;;;;;;7.35;5.18;;;26.80;74.40;;;;;;5055103;28;20060;-67
2022/07/25 00:23:34;;;;;;;10.05;5.50;;;26.80;74.50;;;;;;5055086;28;20025;-66
2022/07/25 00:25:59;;;;;;;4.80;4.40;;;26.80;74.50;;;;;;5054968;28;20032;-66
2022/07/25 00:28:25;;;;;;;6.95;4.72;;;26.80;74.20;;;;;;5054469;28;20035;-66
2022/07/25 00:30:51;;;;;;;6.43;5.10;;;26.80;74.50;;;;;;5054906;28;20475;-66
2022/07/25 00:33:16;;;;;;;5.63;4.88;;;26.80;74.60;;;;;;5055040;28;20016;-66
2022/07/25 00:35:42;;;;;;;5.80;4.75;;;26.80;74.90;;;;;;5054780;28;20085;-66
2022/07/25 00:38:08;;;;;;;6.90;5.28;;;26.70;74.80;;;;;;5054773;28;20099;-68
2022/07/25 00:40:33;;;;;;;6.88;5.40;;;26.70;75.00;;;;;;5054650;28;20036;-66
2022/07/25 00:42:59;;;;;;;7.22;5.28;;;26.70;74.70;;;;;;5054685;28;20027;-67
2022/07/25 00:45:25;;;;;;;7.95;5.93;;;26.70;74.80;;;;;;5054475;28;20486;-67
2022/07/25 00:47:50;;;;;;;6.50;4.93;;;26.70;74.70;;;;;;5054738;28;20025;-66
2022/07/25 00:50:16;;;;;;;5.88;5.25;;;26.60;75.00;;;;;;5054356;28;20112;-67
2022/07/25 00:52:42;;;;;;;7.78;5.43;;;26.60;74.90;;;;;;5054766;28;20071;-67
2022/07/25 00:55:08;;;;;;;6.53;5.82;;;26.60;75.00;;;;;;5054510;28;20029;-68
2022/07/25 00:57:33;;;;;;;6.68;5.35;;;26.60;74.90;;;;;;5054199;28;20088;-66
2022/07/25 00:59:59;;;;;;;8.05;5.50;;;26.60;75.10;;;;;;5054029;28;20032;-66
2022/07/25 01:02:24;;;;;;;6.75;5.82;;;26.60;75.00;;;;;;5054286;28;20022;-67
2022/07/25 01:04:50;;;;;;;6.93;5.57;;;26.60;75.00;;;;;;5054328;28;20031;-66
2022/07/25 01:07:16;;;;;;;8.13;5.68;;;26.50;75.10;;;;;;5054193;28;20021;-66
2022/07/25 01:09:42;;;;;;;6.88;5.60;;;26.50;75.10;;;;;;5054117;28;20513;-66
2022/07/25 01:12:07;;;;;;;8.60;5.10;;;26.50;75.10;;;;;;5053831;28;20025;-66
2022/07/25 01:14:33;;;;;;;9.25;5.55;;;26.50;75.80;;;;;;5054135;28;20071;-66
2022/07/25 01:16:58;;;;;;;8.40;5.55;;;26.50;75.20;;;;;;5054027;28;20474;-66
2022/07/25 01:19:24;;;;;;;10.15;5.65;;;26.50;75.30;;;;;;5053990;28;20419;-66
2022/07/25 01:21:49;;;;;;;8.02;5.47;;;26.50;75.40;;;;;;5053939;28;20382;-66
2022/07/25 01:24:15;;;;;;;5.80;5.20;;;26.50;75.50;;;;;;5053909;28;20025;-66
2022/07/25 01:26:40;;;;;;;6.88;5.38;;;26.40;75.60;;;;;;5053486;28;20478;-67
2022/07/25 01:29:06;;;;;;;6.88;5.20;;;26.40;75.70;;;;;;5053827;28;20474;-66
2022/07/25 01:31:32;;;;;;;7.32;6.53;;;26.40;75.80;;;;;;5053256;28;20029;-67
2022/07/25 01:33:57;;;;;;;6.13;5.53;;;26.40;75.50;;;;;;5053764;28;20049;-66
2022/07/25 01:36:23;;;;;;;6.00;5.40;;;26.40;75.60;;;;;;5052179;28;20440;-66
2022/07/25 01:38:48;;;;;;;6.10;5.50;;;26.40;75.70;;;;;;5053525;28;20021;-66
2022/07/25 01:41:14;;;;;;;7.07;5.45;;;26.40;75.80;;;;;;5053616;28;20375;-66
2022/07/25 01:43:40;;;;;;;9.13;6.07;;;26.40;75.70;;;;;;5053541;28;20021;-67
2022/07/25 01:46:05;;;;;;;7.38;5.90;;;26.40;75.90;;;;;;5053667;28;20025;-67
2022/07/25 01:48:31;;;;;;;6.78;5.50;;;26.30;75.90;;;;;;5053563;28;20162;-67
2022/07/25 01:50:56;;;;;;;10.10;6.32;;;26.30;76.20;;;;;;5053344;28;20075;-67
2022/07/25 01:53:22;;;;;;;9.50;5.50;;;26.30;76.30;;;;;;5053234;28;20036;-66
2022/07/25 01:55:47;;;;;;;8.65;5.95;;;26.30;76.30;;;;;;5053191;28;20025;-67
2022/07/25 01:58:13;;;;;;;6.85;5.57;;;26.30;76.30;;;;;;5053694;28;20111;-67
2022/07/25 02:00:39;;;;;;;8.70;5.93;;;26.20;76.30;;;;;;5053434;28;20105;-66
2022/07/25 02:05:48;;;;;;;7.22;6.53;;;26.30;76.40;;;;;;5053062;28;20044;-67
2022/07/25 02:08:14;;;;;;;7.75;6.50;;;26.20;76.30;;;;;;5052973;28;20025;-67
2022/07/25 02:10:39;;;;;;;9.25;6.32;;;26.20;76.20;;;;;;5053374;28;20025;-67
2022/07/25 02:13:05;;;;;;;6.70;6.00;;;26.20;76.50;;;;;;5053252;28;20031;-67
2022/07/25 02:15:31;;;;;;;8.57;6.95;;;26.20;76.70;;;;;;5053137;28;20016;-67
2022/07/25 02:17:56;;;;;;;11.10;6.15;;;26.20;76.60;;;;;;5052857;28;20025;-67
2022/07/25 02:20:22;;;;;;;8.38;6.38;;;26.20;76.60;;;;;;5053123;28;20028;-67
2022/07/25 02:22:47;;;;;;;8.18;7.10;;;26.20;76.60;;;;;;5053296;28;20013;-67
2022/07/25 02:25:13;;;;;;;8.65;6.40;;;26.10;76.60;;;;;;5052955;28;20037;-66
2022/07/25 02:27:39;;;;;;;10.25;6.47;;;26.20;76.60;;;;;;5053005;28;20029;-66
2022/07/25 02:30:05;;;;;;;7.72;6.65;;;26.10;76.40;;;;;;5053059;28;20480;-67
2022/07/25 02:32:31;;;;;;;7.30;6.38;;;26.10;76.50;;;;;;5052953;28;20155;-67
2022/07/25 02:34:57;;;;;;;7.22;6.13;;;26.10;76.70;;;;;;5053023;28;20486;-68
2022/07/25 02:37:23;;;;;;;7.82;6.65;;;26.10;76.90;;;;;;5052656;28;20071;-68
2022/07/25 02:39:48;;;;;;;6.68;6.07;;;26.10;76.60;;;;;;5052719;28;20033;-66
2022/07/25 02:42:14;;;;;;;8.80;5.90;;;26.10;76.50;;;;;;5052826;28;20083;-67
2022/07/25 02:44:40;;;;;;;9.88;5.93;;;26.10;76.60;;;;;;5057164;28;20035;-67
2022/07/25 02:47:05;;;;;;;7.18;6.05;;;26.00;76.50;;;;;;5056928;28;20029;-66
2022/07/25 02:49:31;;;;;;;7.55;6.78;;;26.00;76.40;;;;;;5056815;28;20371;-68
2022/07/25 02:51:56;;;;;;;8.10;6.45;;;26.00;76.70;;;;;;5055131;28;20112;-69
2022/07/25 02:54:22;;;;;;;10.13;5.85;;;26.00;76.40;;;;;;5056820;28;20096;-68
2022/07/25 02:56:48;;;;;;;7.93;5.47;;;26.00;76.50;;;;;;5056670;28;20103;-67
2022/07/25 02:59:13;;;;;;;6.68;4.97;;;26.00;76.50;;;;;;5056648;28;20041;-69
2022/07/25 03:01:39;;;;;;;5.95;5.43;;;26.00;75.90;;;;;;5056634;28;20029;-67
2022/07/25 03:04:04;;;;;;;6.25;5.63;;;26.00;76.10;;;;;;5056558;28;20067;-68
2022/07/25 03:06:30;;;;;;;7.13;5.45;;;25.90;74.80;;;;;;5056184;28;20390;-70
2022/07/25 03:08:55;;;;;;;5.85;5.30;;;26.00;74.50;;;;;;5056381;28;20029;-66
2022/07/25 03:11:21;;;;;;;6.28;5.55;;;25.90;74.50;;;;;;5056487;28;20153;-66
2022/07/25 03:13:47;;;;;;;5.57;5.07;;;25.90;74.30;;;;;;5056482;28;20032;-67
2022/07/25 03:16:12;;;;;;;6.45;5.32;;;25.90;74.40;;;;;;5056427;28;20029;-68
2022/07/25 03:18:38;;;;;;;10.00;6.35;;;25.90;74.10;;;;;;5056145;28;20021;-66
2022/07/25 03:21:04;;;;;;;8.38;6.22;;;25.90;74.10;;;;;;5056067;28;20466;-67
2022/07/25 03:23:29;;;;;;;6.47;5.60;;;25.90;74.10;;;;;;5055992;28;20056;-67
2022/07/25 03:25:56;;;;;;;8.10;7.07;;;25.90;74.10;;;;;;5056331;28;20055;-66
2022/07/25 03:28:23;;;;;;;6.72;6.13;;;25.90;74.20;;;;;;5055991;28;20043;-67
2022/07/25 03:30:49;;;;;;;6.70;6.00;;;25.90;74.20;;;;;;5056158;28;20054;-67
2022/07/25 03:33:14;;;;;;;7.57;6.35;;;25.80;74.10;;;;;;5056139;28;20152;-66
2022/07/25 03:35:40;;;;;;;7.45;6.68;;;25.80;74.20;;;;;;5055177;28;20041;-66
2022/07/25 03:38:06;;;;;;;7.80;6.68;;;25.80;74.20;;;;;;5054622;28;20497;-68
2022/07/25 03:40:32;;;;;;;8.63;6.20;;;25.80;74.30;;;;;;5054709;28;20036;-67
2022/07/25 03:42:57;;;;;;;9.57;7.30;;;25.80;74.20;;;;;;5054423;28;20096;-66
2022/07/25 03:45:23;;;;;;;6.97;6.22;;;25.70;74.00;;;;;;5054578;28;20041;-67
2022/07/25 03:47:49;;;;;;;8.05;6.50;;;25.80;74.10;;;;;;5054615;28;20535;-67
2022/07/25 03:50:14;;;;;;;6.32;5.72;;;25.80;73.60;;;;;;5054191;28;20036;-66
2022/07/25 03:52:40;;;;;;;12.30;6.57;;;25.70;73.70;;;;;;5054491;28;20028;-67
2022/07/25 03:55:07;;;;;;;7.65;5.80;;;25.70;73.50;;;;;;5053989;28;20078;-67
2022/07/25 03:57:33;;;;;;;7.03;5.90;;;25.70;73.50;;;;;;5054380;28;20432;-67
2022/07/25 03:59:59;;;;;;;7.75;5.70;;;25.70;73.60;;;;;;5054636;28;20033;-68
2022/07/25 04:02:24;;;;;;;6.43;5.80;;;25.70;73.50;;;;;;5054512;28;20017;-66
2022/07/25 04:04:50;;;;;;;7.40;5.97;;;25.70;73.50;;;;;;5053916;28;20375;-67
2022/07/25 04:07:16;;;;;;;5.88;5.20;;;25.70;73.30;;;;;;5054420;28;20355;-67
2022/07/25 04:09:41;;;;;;;5.80;4.97;;;25.70;73.30;;;;;;5053944;28;20028;-67
2022/07/25 04:12:07;;;;;;;7.40;5.90;;;25.60;73.30;;;;;;5054337;28;20028;-67
2022/07/25 04:14:33;;;;;;;6.82;5.30;;;25.70;73.20;;;;;;5054157;28;20021;-67
2022/07/25 04:16:58;;;;;;;8.75;5.60;;;25.70;73.30;;;;;;5054327;28;20524;-66
2022/07/25 04:19:24;;;;;;;5.50;4.60;;;25.60;73.20;;;;;;5053671;28;20425;-66
2022/07/25 04:21:49;;;;;;;8.05;5.60;;;25.60;73.10;;;;;;5054125;28;20367;-67
2022/07/25 04:24:15;;;;;;;6.18;5.57;;;25.60;73.30;;;;;;5053948;28;20044;-66
2022/07/25 04:26:41;;;;;;;6.30;5.15;;;25.60;72.80;;;;;;5053994;28;20393;-66
2022/07/25 04:29:06;;;;;;;7.05;5.57;;;25.60;73.10;;;;;;5054060;28;20143;-67
2022/07/25 04:31:32;;;;;;;5.72;4.93;;;25.60;72.80;;;;;;5054002;28;20524;-67
2022/07/25 04:33:58;;;;;;;8.40;5.13;;;25.60;72.90;;;;;;5053395;28;20029;-66
2022/07/25 04:36:23;;;;;;;7.03;5.00;;;25.60;72.80;;;;;;5011665;28;1229912;-67
2022/07/25 04:38:49;;;;;;;8.45;5.00;;;25.60;72.70;;;;;;5054651;28;20056;-66
2022/07/25 04:41:15;;;;;;;6.28;3.60;;;25.60;73.10;;;;;;5054780;28;20021;-65
2022/07/25 04:43:40;;;;;;;5.35;3.40;;;25.50;73.20;;;;;;5054808;28;20466;-68
2022/07/25 04:46:06;;;;;;;6.00;3.22;;;25.50;73.50;;;;;;5054671;28;20040;-66
2022/07/25 04:48:31;;;;;;;4.43;3.00;;;25.50;73.90;;;;;;5054339;28;20508;-66
2022/07/25 04:50:57;;;;;;;4.63;2.90;;;25.50;73.80;;;;;;5054433;28;20028;-67
2022/07/25 04:53:23;;;;;;;5.13;3.10;;;25.50;73.90;;;;;;5054668;28;20021;-65
2022/07/25 04:55:48;;;;;;;9.35;3.33;;;25.50;74.30;;;;;;5054397;28;20028;-66
2022/07/25 04:58:14;;;;;;;6.03;2.53;;;25.50;74.10;;;;;;5053989;28;20024;-65
2022/07/25 05:00:40;;;;;;;7.00;2.78;;;25.40;73.40;;;;;;5037591;28;20094;-65
2022/07/25 05:03:05;;;;;;;3.88;3.03;;;25.50;73.40;;;;;;5041664;28;20029;-65
2022/07/25 05:05:31;;;;;;;3.65;2.75;;;25.50;73.40;;;;;;5042408;28;20040;-65
2022/07/25 05:07:58;;;;;;;8.05;3.60;;;25.40;73.20;;;;;;5042011;28;20025;-65
2022/07/25 05:10:25;;;;;;;10.10;3.45;;;25.40;73.20;;;;;;5033533;28;20024;-74
2022/07/25 05:12:51;;;;;;;6.38;3.22;;;25.40;73.00;;;;;;5033335;28;20428;-66
2022/07/25 05:15:17;;;;;;;7.65;3.17;;;25.40;72.80;;;;;;5033976;28;20536;-66
2022/07/25 05:17:42;;;;;;;7.97;3.83;;;25.40;72.70;;;;;;5033683;28;20494;-74
2022/07/25 05:20:09;;;;;;;5.65;3.63;;;25.40;72.80;;;;;;5032714;28;20021;-75
2022/07/25 05:22:34;;;;;;;7.40;3.22;;;25.30;72.90;;;;;;5034327;28;20374;-66
2022/07/25 05:25:01;;;;;;;4.63;2.60;;;25.30;73.50;;;;;;5034053;28;20498;-74
2022/07/25 05:27:27;;;;;;;4.97;2.13;;;25.40;73.80;;;;;;5033985;28;20427;-69
2022/07/25 05:29:52;;;;;;;8.85;2.60;;;25.40;74.30;;;;;;5033886;28;20517;-65
2022/07/25 05:32:18;;;;;;;4.93;2.25;;;25.30;74.40;;;;;;5033683;28;20037;-65
2022/07/25 05:34:44;;;;;;;5.55;2.50;;;25.40;74.50;;;;;;5033858;28;20057;-65
2022/07/25 05:37:10;;;;;;;8.43;2.60;;;25.40;74.60;;;;;;5033607;28;20033;-65
2022/07/25 05:39:38;;;;;;;4.95;2.50;;;25.40;74.50;;;;;;5033627;28;20036;-65
2022/07/25 05:42:04;;;;;;;3.45;2.30;;;25.30;74.50;;;;;;5033882;28;20128;-65
2022/07/25 05:44:30;;;;;;;7.05;2.63;;;25.40;74.40;;;;;;5032444;28;20061;-65
2022/07/25 05:46:55;;;;;;;5.30;2.28;;;25.30;74.30;;;;;;5035764;28;20025;-66
2022/07/25 05:49:21;;;;;;;4.45;2.55;;;25.40;74.30;;;;;;5034104;28;20536;-69
2022/07/25 05:51:47;;;;;;;5.68;2.53;;;25.30;74.20;;;;;;5033463;28;20044;-65
2022/07/25 05:54:13;;;;;;;5.80;2.72;;;25.40;74.30;;;;;;5036190;28;20394;-66
2022/07/25 05:56:38;;;;;;;8.88;2.67;;;25.40;74.40;;;;;;5052820;28;20501;-66
2022/07/25 05:59:04;;;;;;;6.65;2.45;;;25.40;74.60;;;;;;5053541;28;20557;-65
2022/07/25 06:01:30;;;;;;;7.65;2.63;;;25.30;75.00;;;;;;5052937;28;20029;-65
2022/07/25 06:03:55;;;;;;;5.00;2.33;;;25.30;75.00;;;;;;5051214;28;20474;-65
2022/07/25 06:06:21;;;;;;;4.30;2.30;;;25.30;76.00;;;;;;5053304;28;20037;-74
2022/07/25 06:08:46;;;;;;;4.78;2.45;;;25.30;76.10;;;;;;5053225;28;20029;-68
2022/07/25 06:11:12;;;;;;;6.45;2.75;;;25.30;77.50;;;;;;5053159;28;20033;-67
2022/07/25 06:13:38;;;;;;;5.57;2.80;;;25.40;78.10;;;;;;5053071;28;20021;-66
2022/07/25 06:16:04;;;;;;;5.78;2.72;;;25.40;78.20;;;;;;5052987;28;20074;-65
2022/07/25 06:18:29;;;;;;;5.22;2.92;;;25.40;78.00;;;;;;5053070;28;20467;-65
2022/07/25 06:20:55;;;;;;;5.50;2.50;;;25.40;77.70;;;;;;5039518;28;20028;-72
2022/07/25 06:23:20;;;;;;;10.50;2.75;;;25.40;77.50;;;;;;5038962;28;20482;-65
2022/07/25 06:25:46;;;;;;;5.15;2.00;;;25.30;77.50;;;;;;5037616;28;20041;-65
2022/07/25 06:28:13;;;;;;;6.28;2.20;;;25.30;77.70;;;;;;5031962;28;20022;-65
2022/07/25 06:30:40;;;;;;;5.72;2.00;;;25.40;77.80;;;;;;5032805;28;20056;-65
2022/07/25 06:33:06;;;;;;;6.38;2.15;;;25.30;78.10;;;;;;5042165;28;20017;-66
2022/07/25 06:35:31;;;;;;;5.78;2.08;;;25.30;78.10;;;;;;5055769;28;20029;-64
2022/07/25 06:37:57;;;;;;;11.18;2.25;;;25.30;78.30;;;;;;5049269;28;20136;-64
2022/07/25 06:40:22;;;;;;;4.63;1.70;;;25.40;78.30;;;;;;5032897;28;20419;-65
2022/07/25 06:42:48;;;;;;;6.80;1.83;;;25.40;78.40;;;;;;5066113;28;20033;-65
2022/07/25 06:45:14;;;;;;;5.18;1.63;;;25.40;78.50;;;;;;5072653;28;20499;-64
2022/07/25 06:47:41;;;;;;;5.55;1.80;;;25.40;78.60;;;;;;5072655;28;20036;-65
2022/07/25 06:50:09;;;;;;;6.35;2.03;;;25.40;78.70;;;;;;5069396;28;20017;-65
2022/07/25 06:52:35;;;;;;;8.45;1.80;;;25.40;78.70;;;;;;5052661;28;20037;-65
2022/07/25 06:55:05;;;;;;;6.72;2.03;;;25.50;78.70;;;;;;5052922;28;20113;-65
2022/07/25 06:57:30;;;;;;;6.20;2.20;;;25.50;78.70;;;;;;5052648;28;20104;-66
2022/07/25 06:59:56;;;;;;;6.32;1.92;;;25.50;78.80;;;;;;5052451;28;20068;-64
2022/07/25 07:02:22;;;;;;;5.40;2.58;;;25.60;78.90;;;;;;5052775;28;20037;-65
2022/07/25 07:04:48;;;;;;;4.95;2.05;;;25.60;78.90;;;;;;5052555;28;20018;-65
2022/07/25 07:07:15;;;;;;;6.93;2.00;;;25.60;78.90;;;;;;5052649;28;20029;-65
2022/07/25 07:09:41;;;;;;;5.55;2.20;;;25.60;78.90;;;;;;5052324;28;20016;-64
2022/07/25 07:12:08;;;;;;;6.63;2.38;;;25.60;79.00;;;;;;5052356;28;20036;-65
2022/07/25 07:14:33;;;;;;;6.22;2.08;;;25.60;79.10;;;;;;5052237;28;20390;-69
2022/07/25 07:16:59;;;;;;;5.40;2.35;;;25.60;79.10;;;;;;5052602;28;20028;-65
2022/07/25 07:19:24;;;;;;;6.68;2.38;;;25.70;79.20;;;;;;5052401;28;20032;-65
2022/07/25 07:21:50;;;;;;;3.67;1.92;;;25.70;79.40;;;;;;5052398;28;20386;-65
2022/07/25 07:24:17;;;;;;;7.60;2.40;;;25.70;79.30;;;;;;5052573;28;20147;-65
2022/07/25 07:26:42;;;;;;;5.47;1.90;;;25.70;79.30;;;;;;5048370;28;20034;-74
2022/07/25 07:29:08;;;;;;;6.28;2.00;;;25.80;79.20;;;;;;5033714;28;20108;-65
2022/07/25 07:31:34;;;;;;;5.03;2.10;;;25.80;79.30;;;;;;5036002;28;20534;-70
2022/07/25 07:34:00;;;;;;;5.88;2.13;;;25.80;79.20;;;;;;5036044;28;20025;-65
2022/07/25 07:36:26;;;;;;;5.43;2.30;;;25.90;79.20;;;;;;5036195;28;20513;-65
2022/07/25 07:38:51;;;;;;;6.70;2.45;;;25.90;79.00;;;;;;5049405;28;20025;-65
2022/07/25 07:41:18;;;;;;;8.82;2.00;;;25.90;78.90;;;;;;5049224;28;20090;-65
2022/07/25 07:43:44;;;;;;;5.20;2.13;;;25.90;78.80;;;;;;5052988;28;20025;-65
2022/07/25 07:46:10;;;;;;;7.30;2.22;;;25.90;78.90;;;;;;5054411;28;20033;-65
2022/07/25 07:48:36;;;;;;;5.60;2.22;;;25.90;78.80;;;;;;5055082;28;20036;-65
2022/07/25 07:51:01;;;;;;;5.25;1.83;;;26.00;79.00;;;;;;5054693;28;20108;-67
2022/07/25 07:56:14;;;;;;;6.00;2.13;;;26.10;78.70;;;;;;5045608;28;20041;-65
2022/07/25 07:58:40;;;;;;;6.53;2.00;;;26.10;78.50;;;;;;5038667;28;20107;-66
2022/07/25 08:01:06;;;;;;;5.78;1.92;;;26.10;78.60;;;;;;5039415;28;20069;-65
2022/07/25 08:03:32;;;;;;;2.50;1.13;;;26.20;78.30;;;;;;5060811;28;20474;-65
2022/07/25 08:05:57;;;;;;;7.63;2.28;;;26.20;78.20;;;;;;5048146;28;20046;-65
2022/07/25 08:08:23;;;;;;;7.93;2.35;;;26.20;78.20;;;;;;5038958;28;20057;-66
2022/07/25 08:10:49;;;;;;;4.80;1.58;;;26.20;78.20;;;;;;5034266;28;20466;-65
2022/07/25 08:13:16;;;;;;;6.22;1.30;;;26.20;78.30;;;;;;5044727;28;20024;-65
2022/07/25 08:15:44;;;;;;;6.63;1.73;;;26.20;78.50;;;;;;5059770;28;20385;-70
2022/07/25 08:18:09;;;;;;;5.22;1.80;;;26.20;78.60;;;;;;5058387;28;20032;-65
2022/07/25 08:20:35;;;;;;;5.13;1.70;;;26.20;78.30;;;;;;5056981;28;20437;-65
2022/07/25 08:23:02;;;;;;;3.90;1.58;;;26.20;78.30;;;;;;5058697;28;20030;-65
2022/07/25 08:25:28;;;;;;;6.75;1.35;;;26.30;78.30;;;;;;5046721;28;20037;-65
2022/07/25 08:27:54;;;;;;;4.05;1.73;;;26.30;78.40;;;;;;5055168;28;20024;-65
2022/07/25 08:30:20;;;;;;;5.95;1.88;;;26.30;78.30;;;;;;5062392;28;20032;-65
2022/07/25 08:32:52;;;;;;;6.78;1.70;;;26.30;78.30;;;;;;5065173;28;20474;-65
2022/07/25 08:35:20;;;;;;;5.75;1.52;;;26.40;78.30;;;;;;5064083;28;20055;-65
2022/07/25 08:37:47;;;;;;;5.30;1.20;;;26.30;78.00;;;;;;5058944;28;20021;-65
2022/07/25 08:40:14;;;;;;;5.70;1.75;;;26.40;77.90;;;;;;5060568;28;20068;-70
2022/07/25 08:42:40;;;;;;;3.75;1.35;;;26.40;77.90;;;;;;5056314;28;20112;-66
2022/07/25 08:45:08;;;;;;;6.18;1.40;;;26.40;77.60;;;;;;5064301;28;20092;-66
2022/07/25 08:47:35;;;;;;;4.68;1.45;;;26.40;77.80;;;;;;5041070;28;20067;-70
2022/07/25 08:50:07;;;;;;;4.72;1.38;;;26.40;77.60;;;;;;5060025;28;20017;-65
2022/07/25 08:52:36;;;;;;;5.78;1.13;;;26.40;78.00;;;;;;5062538;28;20173;-72
2022/07/25 08:55:07;;;;;;;6.57;1.55;;;26.40;77.30;;;;;;5042346;28;20929;-67
2022/07/25 08:57:34;;;;;;;6.78;1.30;;;26.40;77.30;;;;;;5043569;28;20120;-67
2022/07/25 09:00:01;;;;;;;6.80;1.60;;;26.50;77.20;;;;;;5048561;28;20021;-67
2022/07/25 09:02:27;;;;;;;4.35;1.15;;;26.50;77.00;;;;;;5042498;28;20021;-67
2022/07/25 09:04:55;;;;;;;5.85;1.48;;;26.50;76.90;;;;;;5050879;28;20024;-66
2022/07/25 09:07:34;;;;;;;5.82;1.42;;;26.40;76.80;;;;;;5052436;28;20032;-68
2022/07/25 09:10:21;;;;;;;5.30;1.52;;;26.50;77.40;;;;;;5043669;28;20407;-67
2022/07/25 09:12:58;;;;;;;4.38;1.50;;;26.50;76.60;;;;;;5040423;28;20087;-68
2022/07/25 09:15:24;;;;;;;6.25;1.60;;;26.50;76.60;;;;;;5033497;28;20033;-67
2022/07/25 09:17:51;;;;;;;3.63;1.33;;;26.50;76.60;;;;;;5052976;28;20035;-68
2022/07/25 09:20:17;;;;;;;3.45;1.20;;;26.50;76.60;;;;;;5035407;28;20025;-67
2022/07/25 09:22:43;;;;;;;6.22;1.55;;;26.50;76.60;;;;;;5031291;28;20040;-73
2022/07/25 09:25:20;;;;;;;4.90;1.42;;;26.60;76.10;;;;;;5034993;28;20048;-70
2022/07/25 09:27:46;;;;;;;4.28;1.58;;;26.60;76.00;;;;;;5044903;28;20026;-73
2022/07/25 09:30:14;;;;;;;6.25;1.40;;;26.60;75.70;;;;;;5034215;28;20055;-68
2022/07/25 09:32:41;;;;;;;3.97;1.80;;;26.60;75.80;;;;;;5039899;28;20025;-72
2022/07/25 09:35:07;;;;;;;6.88;1.60;;;26.60;76.00;;;;;;5055353;28;20043;-67
2022/07/25 09:37:32;;;;;;;5.25;1.63;;;26.60;76.30;;;;;;5051209;28;20520;-72
2022/07/25 09:39:58;;;;;;;7.47;1.65;;;26.60;76.10;;;;;;5042271;28;20022;-67
2022/07/25 09:42:24;;;;;;;7.50;1.70;;;26.60;76.40;;;;;;5043352;28;20041;-68
2022/07/25 09:45:10;;;;;;;3.83;1.60;;;26.60;75.50;;;;;;5047500;28;20486;-67
2022/07/25 09:47:48;;;;;;;5.90;1.90;;;26.50;75.30;;;;;;5043053;28;20134;-67
2022/07/25 09:50:15;;;;;;;5.60;1.48;;;26.60;74.40;;;;;;5040439;28;20537;-67
2022/07/25 09:52:41;;;;;;;5.60;1.70;;;26.60;74.20;;;;;;5047375;28;20378;-67
2022/07/25 09:55:08;;;;;;;6.47;1.60;;;26.60;74.00;;;;;;5047463;28;20470;-66
2022/07/25 09:57:34;;;;;;;8.85;1.92;;;26.60;73.90;;;;;;5053184;28;20025;-66
2022/07/25 10:00:00;;;;;;;4.57;1.33;;;26.60;73.60;;;;;;5051446;28;20029;-66
2022/07/25 10:02:32;;;;;;;5.32;1.80;;;26.60;74.10;;;;;;5044145;28;20013;-67
2022/07/25 10:05:14;;;;;;;5.70;1.77;;;26.60;74.20;;;;;;5047006;28;20029;-66
2022/07/25 10:07:45;;;;;;;6.95;1.85;;;26.60;74.10;;;;;;5050152;28;20083;-66
2022/07/25 10:10:23;;;;;;;4.53;1.80;;;26.70;74.20;;;;;;5037429;28;20462;-67
2022/07/25 10:13:14;;;;;;;4.82;1.65;;;26.70;73.90;;;;;;5042824;28;20383;-67
2022/07/25 10:15:51;;;;;;;5.70;2.05;;;26.70;74.00;;;;;;5044797;28;20493;-67
2022/07/25 10:18:19;;;;;;;6.05;1.70;;;26.70;74.00;;;;;;5053486;28;20515;-67
2022/07/25 10:20:46;;;;;;;3.95;1.63;;;26.70;73.80;;;;;;5059717;28;20028;-73
2022/07/25 10:23:23;;;;;;;5.85;1.27;;;26.60;73.70;;;;;;5050983;28;20033;-71
2022/07/25 10:26:00;;;;;;;5.18;1.40;;;26.60;73.30;;;;;;5051497;28;20029;-72
2022/07/25 10:28:55;;;;;;;6.20;1.88;;;26.60;73.40;;;;;;5050199;28;20384;-68
2022/07/25 10:31:28;;;;;;;5.57;1.63;;;26.60;73.30;;;;;;5041369;28;20040;-68
2022/07/25 10:34:01;;;;;;;5.65;1.58;;;26.60;73.40;;;;;;5036743;28;20048;-76
2022/07/25 10:36:40;;;;;;;5.00;1.60;;;26.60;73.40;;;;;;5039340;28;20112;-69
2022/07/25 10:39:09;;;;;;;4.63;1.60;;;26.60;73.60;;;;;;5044461;28;20142;-67
2022/07/25 10:41:38;;;;;;;4.03;1.85;;;26.70;73.20;;;;;;5042738;28;20021;-66
2022/07/25 10:44:11;;;;;;;4.55;1.60;;;26.60;73.00;;;;;;5045333;28;20013;-67
2022/07/25 10:46:37;;;;;;;6.00;1.60;;;26.60;73.40;;;;;;5040132;28;20484;-68
2022/07/25 10:49:05;;;;;;;6.50;1.77;;;26.60;73.10;;;;;;5049283;28;20032;-73
2022/07/25 10:51:36;;;;;;;4.50;1.60;;;26.60;73.20;;;;;;5056435;28;20094;-67
2022/07/25 10:54:12;;;;;;;4.82;1.60;;;26.60;72.90;;;;;;5030889;28;20017;-68
2022/07/25 10:56:50;;;;;;;3.60;1.23;;;26.70;73.00;;;;;;5035116;28;20025;-66
2022/07/25 10:59:25;;;;;;;7.20;1.98;;;26.60;73.10;;;;;;5039882;28;20041;-67
2022/07/25 11:01:52;;;;;;;5.65;1.65;;;26.60;73.10;;;;;;5040853;28;20100;-67
2022/07/25 11:04:18;;;;;;;5.22;2.03;;;26.60;72.80;;;;;;5047333;28;20033;-67
2022/07/25 11:06:43;;;;;;;4.95;1.80;;;26.60;72.80;;;;;;5050583;28;20041;-67
2022/07/25 11:09:20;;;;;;;5.75;1.88;;;26.60;72.70;;;;;;5061960;28;20028;-66
2022/07/25 11:11:48;;;;;;;5.00;1.60;;;26.60;72.80;;;;;;5061389;28;20031;-67
2022/07/25 11:14:21;;;;;;;4.03;1.48;;;26.60;72.70;;;;;;5064208;28;20048;-67
2022/07/25 11:16:49;;;;;;;5.47;1.75;;;26.60;72.80;;;;;;5061635;28;20033;-69
2022/07/25 11:19:32;;;;;;;6.68;2.03;;;26.60;72.90;;;;;;5049389;28;20028;-66
2022/07/25 11:21:59;;;;;;;12.57;2.38;;;26.60;73.10;;;;;;5050803;28;20035;-67
2022/07/25 11:24:43;;;;;;;4.20;1.58;;;26.60;73.10;;;;;;5047207;28;20087;-74
2022/07/25 11:27:10;;;;;;;5.97;1.48;;;26.60;73.10;;;;;;5049649;28;20025;-66
2022/07/25 11:29:37;;;;;;;8.05;2.00;;;26.60;72.80;;;;;;5062548;28;20056;-67
2022/07/25 11:32:08;;;;;;;5.38;1.50;;;26.60;73.10;;;;;;5062332;28;20512;-72
2022/07/25 11:34:44;;;;;;;6.00;2.13;;;26.60;72.90;;;;;;5058227;28;20036;-70
2022/07/25 11:37:12;;;;;;;9.32;2.45;;;26.60;73.10;;;;;;5044819;28;20028;-67
2022/07/25 11:39:40;;;;;;;9.25;3.35;;;26.70;73.20;;;;;;5045539;28;20029;-65
2022/07/25 11:42:10;;;;;;;12.02;4.03;;;26.70;73.20;;;;;;5049557;28;20494;-67
2022/07/25 11:44:41;;;;;;;15.52;5.07;;;26.70;73.30;;;;;;5047358;28;20037;-66
2022/07/25 11:47:09;;;;;;;25.45;5.53;;;26.70;73.90;;;;;;5046980;28;20048;-67
2022/07/25 11:49:45;;;;;;;31.10;8.07;;;26.70;74.30;;;;;;5048558;28;20086;-68
2022/07/25 11:52:24;;;;;;;33.53;9.50;;;26.70;75.60;;;;;;5055340;28;20029;-68
2022/07/25 11:54:54;;;;;;;26.48;8.57;;;26.70;76.20;;;;;;5044401;28;20026;-68
2022/07/25 11:57:22;;;;;;;25.33;8.80;;;26.70;77.20;;;;;;5040553;28;20029;-68
2022/07/25 11:59:48;;;;;;;23.13;9.57;;;26.70;79.10;;;;;;5058376;28;20116;-68
2022/07/25 12:02:24;;;;;;;27.42;9.82;;;26.80;80.00;;;;;;5051934;28;20108;-69
2022/07/25 12:05:12;;;;;;;24.95;8.57;;;26.80;82.50;;;;;;5047344;28;20028;-69
2022/07/25 12:07:40;;;;;;;24.58;8.32;;;26.80;84.70;;;;;;5048769;28;20086;-68
2022/07/25 12:10:09;;;;;;;23.58;8.38;;;26.80;83.10;;;;;;5049067;28;20116;-68
2022/07/25 12:12:53;;;;;;;22.35;6.80;;;26.80;82.60;;;;;;5049664;28;20029;-68
2022/07/25 12:15:25;;;;;;;19.17;6.68;;;26.90;80.60;;;;;;5034453;28;20033;-70
2022/07/25 12:17:53;;;;;;;22.85;7.32;;;26.90;80.50;;;;;;5045312;28;20366;-67
2022/07/25 12:20:31;;;;;;;21.80;7.55;;;26.90;80.70;;;;;;5048606;28;20025;-68
2022/07/25 12:22:59;;;;;;;20.17;5.85;;;27.00;80.60;;;;;;5043397;28;20032;-67
2022/07/25 12:25:26;;;;;;;18.38;5.55;;;26.90;79.90;;;;;;5045815;28;20033;-67
2022/07/25 12:27:52;;;;;;;19.55;6.00;;;26.90;79.70;;;;;;5043731;28;20036;-67
2022/07/25 12:30:17;;;;;;;18.13;5.38;;;26.90;78.60;;;;;;5052815;28;20025;-69
2022/07/25 12:32:43;;;;;;;14.85;4.90;;;27.00;78.80;;;;;;5064686;28;20036;-67
2022/07/25 12:35:12;;;;;;;16.05;4.55;;;26.90;78.10;;;;;;5046321;28;20065;-67
2022/07/25 12:37:40;;;;;;;16.20;4.38;;;26.90;78.10;;;;;;5047437;28;20029;-66
2022/07/25 12:40:07;;;;;;;12.88;3.80;;;27.00;76.60;;;;;;5042077;28;20035;-66
2022/07/25 12:42:37;;;;;;;12.45;3.58;;;27.00;75.60;;;;;;5040939;28;20083;-69
2022/07/25 12:45:04;;;;;;;18.27;4.32;;;27.00;75.50;;;;;;5043461;28;20578;-70
2022/07/25 12:47:30;;;;;;;8.65;3.25;;;27.00;75.10;;;;;;5045499;28;20111;-69
2022/07/25 12:49:56;;;;;;;10.50;2.75;;;27.00;74.50;;;;;;5037008;28;20420;-67
2022/07/25 12:52:22;;;;;;;10.55;2.42;;;27.00;73.00;;;;;;5051986;28;20469;-67